Flight Track Log - Related Links

Times and Time Zones

All times are in EDT time to prevent confusion due to time zone crossing. See the UPS609 flight status page for this flight to view local times or setup timezone preferences in your user account.

Time Position Orientation Groundspeed Altitude Reporting Facility
EDT Latitude Longitude Course Direction KTS MPH feet Rate Location/Type
Wed 11:11:10 PM 42.0500 -87.9000 38° Northeast 222 255 2,500  Level Chicago TRACON
Wed 11:12:52 PM 42.1481 -87.7956 82° East 285 328 6,900 2,704 Climbing Chicago Center
Wed 11:13:52 PM 42.1592 -87.6833 109° East 343 395 9,800 2,200 Climbing Chicago Center
Wed 11:14:52 PM 42.1303 -87.5692 117° Southeast 343 395 11,300 1,350 Climbing Chicago Center
Wed 11:15:52 PM 42.0825 -87.4419 115° Southeast 374 430 12,500 1,600 Climbing Chicago Center
Wed 11:16:52 PM 42.0297 -87.2925 116° Southeast 411 473 14,500 2,150 Climbing Chicago Center
Wed 11:17:52 PM 41.9728 -87.1378 103° East 441 507 16,800 2,500 Climbing Chicago Center
Wed 11:19:52 PM 41.9178 -86.8078 101° East 452 520 22,000 2,300 Climbing Chicago Center
Wed 11:20:52 PM 41.8931 -86.6358 100° East 457 526 23,700 1,500 Climbing Chicago Center
Wed 11:21:52 PM 41.8700 -86.4553 101° East 473 544 25,000 1,850 Climbing Chicago Center
Wed 11:22:52 PM 41.8422 -86.2700 102° East 492 566 27,400 2,450 Climbing Chicago Center
Wed 11:23:52 PM 41.8142 -86.0872 104° East 499 574 29,900 2,500 Climbing Chicago Center
Wed 11:24:52 PM 41.7819 -85.9106 103° East 504 580 32,400 2,400 Climbing Chicago Center
Wed 11:25:52 PM 41.7514 -85.7342 102° East 488 562 34,700 2,050 Climbing Chicago Center
Wed 11:26:52 PM 41.7203 -85.5439 104° East 483 556 36,500 1,700 Climbing Chicago Center
Wed 11:27:52 PM 41.6894 -85.3733 109° East 476 548 38,100 1,516 Climbing Chicago Center
Wed 11:28:23 PM 41.6656 -85.2814 103° East 485 558 38,800 593 Climbing Cleveland Center
Wed 11:29:23 PM 41.6350 -85.1094 101° East 493 567 39,000 100 Climbing Cleveland Center
Wed 11:30:23 PM 41.6117 -84.9550 105° East 482 555 39,000  Level Cleveland Center
Wed 11:31:23 PM 41.5783 -84.7864 104° East 465 535 39,000  Level Cleveland Center
Wed 11:32:23 PM 41.5469 -84.6175 103° East 470 541 39,000  Level Cleveland Center
Wed 11:33:23 PM 41.5172 -84.4494 104° East 465 535 39,000  Level Cleveland Center
Wed 11:34:23 PM 41.4853 -84.2811 104° East 465 535 39,000  Level Cleveland Center
Wed 11:35:23 PM 41.4550 -84.1158 104° East 465 535 39,000  Level Cleveland Center
Wed 11:36:23 PM 41.4228 -83.9478 103° East 465 535 39,000  Level Cleveland Center
Wed 11:37:23 PM 41.3939 -83.7831 105° East 460 529 39,000  Level Cleveland Center
Wed 11:38:23 PM 41.3611 -83.6153 104° East 465 535 39,000  Level Cleveland Center
Wed 11:39:23 PM 41.3300 -83.4481 105° East 460 529 39,000  Level Cleveland Center
Wed 11:40:23 PM 41.2947 -83.2694 106° East 460 529 39,000  Level Cleveland Center
Wed 11:41:23 PM 41.2608 -83.1078 104° East 455 524 39,000  Level Cleveland Center
Wed 11:42:23 PM 41.2289 -82.9436 105° East 455 524 39,000  Level Cleveland Center
Wed 11:43:23 PM 41.1947 -82.7797 105° East 461 531 39,000  Level Cleveland Center
Wed 11:44:23 PM 41.1622 -82.6158 106° East 461 531 39,000  Level Cleveland Center
Wed 11:45:23 PM 41.1275 -82.4522 105° East 461 531 39,000  Level Cleveland Center
Wed 11:46:23 PM 41.0986 -82.3081 105° East 461 531 39,000  Level Cleveland Center
Wed 11:47:23 PM 41.0656 -82.1419 107° East 461 531 39,000  Level Cleveland Center
Wed 11:48:23 PM 41.0281 -81.9786 105° East 461 531 39,000  Level Cleveland Center
Wed 11:49:23 PM 40.9944 -81.8156 106° East 461 531 39,000  Level Cleveland Center
Wed 11:50:23 PM 40.9586 -81.6500 106° East 461 531 39,000  Level Cleveland Center
Wed 11:51:23 PM 40.9225 -81.4872 105° East 455 524 39,000  Level Cleveland Center
Wed 11:52:23 PM 40.8903 -81.3247 107° East 460 529 39,000  Level Cleveland Center
Wed 11:53:23 PM 40.8517 -81.1594 105° East 460 529 39,000  Level Cleveland Center
Wed 11:54:23 PM 40.8189 -80.9975 105° East 460 529 39,000  Level Cleveland Center
Wed 11:55:23 PM 40.7839 -80.8300 107° East 460 529 39,000  Level Cleveland Center
Wed 11:56:23 PM 40.7467 -80.6708 107° East 460 529 39,000  Level Cleveland Center
Wed 11:57:23 PM 40.7092 -80.5064 107° East 465 535 39,000  Level Cleveland Center
Wed 11:58:23 PM 40.6694 -80.3314 106° East 460 529 39,000  Level Cleveland Center
Wed 11:59:23 PM 40.6333 -80.1700 107° East 460 529 39,000  Level Cleveland Center
Thu 12:00:23 AM 40.5953 -80.0061 106° East 460 529 39,000  Level Cleveland Center
Thu 12:01:23 AM 40.5631 -79.8589 100° East 465 535 39,000  Level Cleveland Center
Thu 12:02:23 AM 40.5389 -79.6789 98° East 459 528 39,000  Level Cleveland Center
Thu 12:03:23 AM 40.5208 -79.5097 97° East 459 528 39,000  Level Cleveland Center
Thu 12:04:23 AM 40.5044 -79.3461 98° East 459 528 39,000  Level Cleveland Center
Thu 12:05:23 AM 40.4858 -79.1800 98° East 459 528 39,000  Level Cleveland Center
Thu 12:06:23 AM 40.4692 -79.0167 99° East 459 528 39,000  Level Cleveland Center
Thu 12:07:23 AM 40.4500 -78.8506 98° East 459 528 39,000  Level Cleveland Center
Thu 12:08:23 AM 40.4328 -78.6872 98° East 459 528 39,000  Level Cleveland Center
Thu 12:09:23 AM 40.4156 -78.5242 98° East 459 528 39,000  Level Cleveland Center
Thu 12:11:10 AM 40.3858 -78.2406 97° East 444 511 39,000  Level New York Center
Thu 12:12:07 AM 40.3711 -78.0781 98° East 444 511 39,000  Level New York Center
Thu 12:13:30 AM 40.3449 -77.8481 99° East 447 514 39,000  Level FlightAware ADS-B
Thu 12:14:00 AM 40.3351 -77.7632 98° East 447 514 39,000  Level FlightAware ADS-B
Thu 12:14:31 AM 40.3257 -77.6807 99° East 446 513 39,000 -194 Level FlightAware ADS-B
Thu 12:15:02 AM 40.3160 -77.5967 99° East 447 514 38,800 -1,082 Descending FlightAware ADS-B
Thu 12:15:32 AM 40.3065 -77.5155 99° East 452 520 37,900 -1,770 Descending FlightAware ADS-B
Thu 12:16:03 AM 40.2964 -77.4306 99° East 458 527 37,000 -1,672 Descending FlightAware ADS-B
Thu 12:16:33 AM 40.2864 -77.3472 99° East 459 528 36,200 -1,500 Descending FlightAware ADS-B
Thu 12:17:03 AM 40.2762 -77.2634 99° East 459 528 35,500 -1,475 Descending FlightAware ADS-B
Thu 12:17:34 AM 40.2659 -77.1792 99° East 461 531 34,700 -1,548 Descending FlightAware ADS-B
Thu 12:18:05 AM 40.2554 -77.0935 99° East 464 534 33,900 -1,645 Descending FlightAware ADS-B
Thu 12:18:36 AM 40.2449 -77.0071 99° East 469 540 33,000 -2,226 Descending FlightAware ADS-B
Thu 12:19:07 AM 40.2340 -76.9179 99° East 475 547 31,600 -3,429 Descending FlightAware ADS-B
Thu 12:19:39 AM 40.2223 -76.8253 99° East 489 563 29,400 -4,258 Descending FlightAware ADS-B
Thu 12:20:09 AM 40.2112 -76.7356 99° East 499 574 27,200 -4,230 Descending FlightAware ADS-B
Thu 12:20:40 AM 40.1998 -76.6437 99° East 504 580 25,100 -3,443 Descending FlightAware ADS-B
Thu 12:21:10 AM 40.1885 -76.5526 99° East 493 567 23,700 -3,000 Descending FlightAware ADS-B
Thu 12:21:40 AM 40.1771 -76.4611 99° East 488 562 22,100 -3,400 Descending FlightAware ADS-B
Thu 12:22:10 AM 40.1665 -76.3773 99° East 476 548 20,300 -4,200 Descending FlightAware ADS-B
Thu 12:22:40 AM 40.1558 -76.2931 100° East 461 531 17,900 -4,525 Descending FlightAware ADS-B
Thu 12:23:11 AM 40.1449 -76.2090 100° East 452 520 15,700 -4,213 Descending FlightAware ADS-B
Thu 12:23:27 AM 40.1391 -76.1670 104° East 450 518 14,600 -4,364 Descending FlightAware ADS-B
Thu 12:23:33 AM 40.1357 -76.1490 110° East 450 518 14,100 -4,105 Descending FlightAware ADS-B
Thu 12:23:46 AM 40.1271 -76.1178 118° Southeast 446 513 13,300 -2,930 Descending FlightAware ADS-B
Thu 12:24:16 AM 40.0986 -76.0469 124° Southeast 423 487 12,000 -2,125 Descending FlightAware ADS-B
Thu 12:24:34 AM 40.0798 -76.0103 129° Southeast 399 459 11,600 -1,125 Descending FlightAware ADS-B
Thu 12:25:04 AM 40.0470 -75.9566 129° Southeast 360 414 11,100 -1,100 Descending FlightAware ADS-B
Thu 12:25:34 AM 40.0169 -75.9077 129° Southeast 334 384 10,500 -1,269 Descending FlightAware ADS-B
Thu 12:25:56 AM 39.9968 -75.8750 129° Southeast 315 362 10,000 -1,692 Descending FlightAware ADS-B
Thu 12:26:13 AM 39.9809 -75.8490 130° Southeast 309 356 9,400 -2,400 Descending FlightAware ADS-B
Thu 12:26:16 AM 39.9773 -75.8433 129° Southeast 307 353 9,200 -2,769 Descending FlightAware ADS-B
Thu 12:26:26 AM 39.9691 -75.8301 128° Southeast 307 353 8,800 -2,571 Descending FlightAware ADS-B
Thu 12:26:30 AM 39.9660 -75.8249 127° Southeast 307 353 8,600 -2,250 Descending FlightAware ADS-B
Thu 12:26:34 AM 39.9629 -75.8196 124° Southeast 307 353 8,500 -2,571 Descending FlightAware ADS-B
Thu 12:26:37 AM 39.9597 -75.8135 119° Southeast 307 353 8,300 -3,429 Descending FlightAware ADS-B
Thu 12:26:41 AM 39.9572 -75.8077 118° Southeast 306 352 8,100 -2,667 Descending FlightAware ADS-B
Thu 12:26:46 AM 39.9535 -75.7985 116° Southeast 307 353 7,900 -2,667 Descending FlightAware ADS-B
Thu 12:26:50 AM 39.9510 -75.7919 116° Southeast 308 354 7,700 -2,800 Descending FlightAware ADS-B
Thu 12:27:01 AM 39.9442 -75.7736 116° Southeast 308 354 7,200 -2,880 Descending FlightAware ADS-B
Thu 12:27:15 AM 39.9357 -75.7513 117° Southeast 308 354 6,500 -2,600 Descending FlightAware ADS-B
Thu 12:27:31 AM 39.9258 -75.7262 118° Southeast 307 353 5,900 -2,516 Descending FlightAware ADS-B
Thu 12:27:46 AM 39.9154 -75.7012 119° Southeast 304 350 5,200 -2,400 Descending FlightAware ADS-B
Thu 12:28:01 AM 39.9053 -75.6773 119° Southeast 299 344 4,700 -1,935 Descending FlightAware ADS-B
Thu 12:28:17 AM 39.8949 -75.6529 118° Southeast 291 335 4,200 -1,556 Descending FlightAware ADS-B
Thu 12:28:28 AM 39.8879 -75.6360 118° Southeast 280 322 4,000 -923 Descending FlightAware ADS-B
Thu 12:28:43 AM 39.8788 -75.6138 118° Southeast 260 299 3,800 -774 Descending FlightAware ADS-B
Thu 12:28:59 AM 39.8702 -75.5929 118° Southeast 243 280 3,600 -750 Descending FlightAware ADS-B
Thu 12:29:15 AM 39.8623 -75.5737 119° Southeast 233 268 3,400 -774 Descending FlightAware ADS-B
Thu 12:29:30 AM 39.8546 -75.5553 119° Southeast 228 262 3,200 -429 Descending FlightAware ADS-B
Thu 12:29:43 AM 39.8481 -75.5400 119° Southeast 220 253 3,200 643 Level FlightAware ADS-B
Thu 12:29:58 AM 39.8411 -75.5235 120° Southeast 203 234 3,500 621 Climbing FlightAware ADS-B
Thu 12:30:12 AM 39.8347 -75.5091 119° Southeast 196 226 3,500 -621 Level FlightAware ADS-B
Thu 12:30:27 AM 39.8279 -75.4930 118° Southeast 199 229 3,200 -1,091 Descending FlightAware ADS-B
Thu 12:30:34 AM 39.8248 -75.4855 116° Southeast 200 230 3,100 -545 Descending FlightAware ADS-B
Thu 12:30:38 AM 39.8232 -75.4812 111° Southeast 199 229 3,100 -750 Level FlightAware ADS-B
Thu 12:30:42 AM 39.8221 -75.4774 99° East 199 229 3,000 -857 Descending FlightAware ADS-B
Thu 12:30:45 AM 39.8216 -75.4734 92° East 199 229 3,000 -1,000 Level FlightAware ADS-B
Thu 12:30:48 AM 39.8215 -75.4695 82° East 199 229 2,900 -1,714 Descending FlightAware ADS-B
Thu 12:30:52 AM 39.8219 -75.4657 74° East 199 229 2,800 -1,333 Descending FlightAware ADS-B
Thu 12:30:57 AM 39.8232 -75.4597 72° East 199 229 2,700 -857 Descending FlightAware ADS-B
Thu 12:31:06 AM 39.8259 -75.4490 74° East 198 228 2,600 -1,000 Descending FlightAware ADS-B
Thu 12:31:15 AM 39.8281 -75.4389 76° East 194 223 2,400 -1,000 Descending FlightAware ADS-B
Thu 12:31:30 AM 39.8313 -75.4225 76° East 178 205 2,200 -857 Descending FlightAware ADS-B
Thu 12:31:43 AM 39.8339 -75.4092 75° East 168 193 2,000 -923 Descending FlightAware ADS-B
Thu 12:31:56 AM 39.8365 -75.3969 76° East 154 177 1,800 -857 Descending FlightAware ADS-B
Thu 12:32:11 AM 39.8390 -75.3841 75° East 138 159 1,600 -692 Descending FlightAware ADS-B
Thu 12:32:22 AM 39.8407 -75.3758 76° East 129 148 1,500 -706 Descending FlightAware ADS-B
Thu 12:32:28 AM 39.8416 -75.3712 75° East 125 144 1,400 -750 Descending FlightAware ADS-B
Thu 12:32:38 AM 39.8430 -75.3644 75° East 123 142 1,300 -600 Descending FlightAware ADS-B
Thu 12:32:48 AM 39.8445 -75.3571 75° East 124 143 1,200 -750 Descending FlightAware ADS-B
Thu 12:32:54 AM 39.8455 -75.3522 75° East 123 142 1,100 -1,091 Descending FlightAware ADS-B
Thu 12:32:59 AM 39.8462 -75.3488 75° East 121 139 1,000 -800 Descending FlightAware ADS-B
Thu 12:33:09 AM 39.8477 -75.3414 75° East 120 138 900 -632 Descending FlightAware ADS-B
Thu 12:33:18 AM 39.8489 -75.3354 75° East 121 139 800 -706 Descending FlightAware ADS-B
Thu 12:33:26 AM 39.8501 -75.3297 78° East 122 140 700 -429 Descending FlightAware ADS-B
Thu 12:33:32 AM 39.8508 -75.3255 76° East 121 139 700 -462 Level FlightAware ADS-B
Thu 12:33:39 AM 39.8518 -75.3203 74° East 121 139 600 -923 Descending FlightAware ADS-B
Thu 12:33:45 AM 39.8528 -75.3158 76° East 120 138 500 -923 Descending FlightAware ADS-B
Thu 12:33:52 AM 39.8537 -75.3110 75° East 119 137 400 -571 Descending FlightAware ADS-B
Thu 12:34:06 AM 39.8557 -75.3012 75° East 121 139 300 -295 Descending FlightAware ADS-B
Thu 12:34:53 AM 39.8600 -75.2800 75° East 119 137 100 -255 Descending FAA TRACON SMA TRACON (SMA)

Login

Don't have an account? Register now (free) for customized features, flight alerts, and more!